createdAt,value
2022-12-01T00:01:31.145Z,24.17
2022-12-01T00:03:04.236Z,24.00
2022-12-01T00:04:36.032Z,24.85
2022-12-01T00:06:15.979Z,26.33
2022-12-01T00:07:50.529Z,26.77
2022-12-01T00:09:40.996Z,26.63
2022-12-01T00:11:12.810Z,27.38
2022-12-01T00:12:44.578Z,28.20
2022-12-01T00:14:16.755Z,27.50
2022-12-01T00:15:48.498Z,26.83
2022-12-01T00:17:21.058Z,26.27
2022-12-01T00:18:53.644Z,25.55
2022-12-01T00:20:25.388Z,24.40
2022-12-01T00:21:57.340Z,24.98
2022-12-01T00:23:29.125Z,23.40
2022-12-01T00:25:00.865Z,22.83
2022-12-01T00:26:32.613Z,25.30
2022-12-01T00:28:04.596Z,22.15
2022-12-01T00:29:36.364Z,24.65
2022-12-01T00:31:09.370Z,23.77
2022-12-01T00:32:41.109Z,29.00
2022-12-01T00:34:22.793Z,26.00
2022-12-01T00:36:01.837Z,24.38
2022-12-01T00:37:34.759Z,24.25
2022-12-01T00:39:06.516Z,25.05
2022-12-01T00:40:38.228Z,24.95
2022-12-01T00:42:13.218Z,25.67
2022-12-01T00:43:45.381Z,26.00
2022-12-01T00:45:17.245Z,24.40
2022-12-01T00:46:49.096Z,24.13
2022-12-01T00:48:20.927Z,24.80
2022-12-01T00:49:52.733Z,26.30
2022-12-01T00:51:24.629Z,25.92
2022-12-01T00:52:56.478Z,23.83
2022-12-01T00:54:28.545Z,25.80
2022-12-01T00:56:00.507Z,23.98
2022-12-01T00:57:32.309Z,23.00
2022-12-01T00:59:04.152Z,23.75
2022-12-01T01:00:38.762Z,23.10
2022-12-01T01:02:10.845Z,23.30
2022-12-01T01:03:42.658Z,23.15
2022-12-01T01:05:14.468Z,23.17
2022-12-01T01:06:46.473Z,23.38
2022-12-01T01:08:18.246Z,22.85
2022-12-01T01:09:50.229Z,23.65
2022-12-01T01:11:22.424Z,24.50
2022-12-01T01:12:54.157Z,24.33
2022-12-01T01:14:26.169Z,24.02
2022-12-01T01:16:07.170Z,24.05
2022-12-01T01:17:38.932Z,21.70
2022-12-01T01:19:10.668Z,22.63
2022-12-01T01:20:45.402Z,23.70
2022-12-01T01:22:17.180Z,23.13
2022-12-01T01:23:50.265Z,22.08
2022-12-01T01:25:22.878Z,23.48
2022-12-01T01:26:55.518Z,23.33
2022-12-01T01:28:27.304Z,23.00
2022-12-01T01:29:59.073Z,23.30
2022-12-01T01:31:31.380Z,24.77
2022-12-01T01:33:03.224Z,23.88
2022-12-01T01:34:35.097Z,23.67
2022-12-01T01:36:07.526Z,22.25
2022-12-01T01:37:39.730Z,21.83
2022-12-01T01:39:11.499Z,22.33
2022-12-01T01:40:44.956Z,21.90
2022-12-01T01:42:19.651Z,22.63
2022-12-01T01:44:01.894Z,23.13
2022-12-01T01:45:33.932Z,22.48
2022-12-01T01:47:06.726Z,22.88
2022-12-01T01:48:41.565Z,22.42
2022-12-01T01:50:16.635Z,20.88
2022-12-01T01:51:53.940Z,22.00
2022-12-01T01:53:25.919Z,21.08
2022-12-01T01:54:58.439Z,23.08
2022-12-01T01:56:31.024Z,23.60
2022-12-01T01:58:07.557Z,22.00
2022-12-01T01:59:45.445Z,22.10
2022-12-01T02:01:17.451Z,22.30
2022-12-01T02:02:50.565Z,23.20
2022-12-01T02:04:24.357Z,24.00
2022-12-01T02:06:01.782Z,23.48
2022-12-01T02:07:37.964Z,23.30
2022-12-01T02:09:12.398Z,23.58
2022-12-01T02:10:47.224Z,23.70
2022-12-01T02:12:59.045Z,23.83
2022-12-01T02:14:45.929Z,23.73
2022-12-01T02:16:39.504Z,21.27
2022-12-01T02:18:22.886Z,21.80
2022-12-01T02:20:11.372Z,21.88
2022-12-01T02:22:24.100Z,21.42
2022-12-01T02:24:25.504Z,21.30
2022-12-01T02:26:19.828Z,19.80
2022-12-01T02:28:13.432Z,21.75
2022-12-01T02:29:58.243Z,21.65
2022-12-01T02:31:53.866Z,22.00
2022-12-01T02:33:45.686Z,20.35
2022-12-01T02:35:35.905Z,21.23
2022-12-01T02:37:10.428Z,20.75
2022-12-01T02:38:54.376Z,20.58
2022-12-01T02:40:37.953Z,21.73
2022-12-01T02:42:40.002Z,24.77
2022-12-01T02:44:20.818Z,23.17
2022-12-01T02:46:15.889Z,22.08
2022-12-01T02:47:51.808Z,22.55
2022-12-01T02:49:29.671Z,23.90
2022-12-01T02:51:08.603Z,25.60
2022-12-01T02:52:41.200Z,24.15
2022-12-01T02:54:15.196Z,21.48
2022-12-01T02:55:53.603Z,23.00
2022-12-01T02:57:26.061Z,23.13
2022-12-01T02:58:57.819Z,22.30
2022-12-01T03:00:30.858Z,23.77
2022-12-01T03:02:24.745Z,25.00
2022-12-01T03:04:15.375Z,22.20
2022-12-01T03:06:03.252Z,23.23
2022-12-01T03:07:44.829Z,20.77
2022-12-01T03:09:37.061Z,21.27
2022-12-01T03:11:08.903Z,19.55
2022-12-01T03:13:02.646Z,20.48
2022-12-01T03:14:49.491Z,21.15
2022-12-01T03:16:32.252Z,20.98
2022-12-01T03:18:31.581Z,20.45
2022-12-01T03:20:16.433Z,18.50
2022-12-01T03:22:12.541Z,19.55
2022-12-01T03:23:47.899Z,19.75
2022-12-01T03:25:22.829Z,21.38
2022-12-01T03:26:58.317Z,21.52
2022-12-01T03:28:34.769Z,22.55
2022-12-01T03:30:10.798Z,24.17
2022-12-01T03:31:48.637Z,22.83
2022-12-01T03:33:52.288Z,21.08
2022-12-01T03:35:29.576Z,20.67
2022-12-01T03:37:07.455Z,20.30
2022-12-01T03:38:42.872Z,21.13
2022-12-01T03:40:18.717Z,19.55
2022-12-01T03:42:02.331Z,22.10
2022-12-01T03:43:40.550Z,20.92
2022-12-01T03:45:18.255Z,20.52
2022-12-01T03:47:07.157Z,21.23
2022-12-01T03:48:40.535Z,20.15
2022-12-01T03:50:14.318Z,19.55
2022-12-01T03:52:09.357Z,22.00
2022-12-01T03:54:10.196Z,19.13
2022-12-01T03:55:44.955Z,18.83
2022-12-01T03:57:31.763Z,20.48
2022-12-01T03:59:07.876Z,22.63
2022-12-01T04:00:40.228Z,21.70
2022-12-01T04:02:12.520Z,23.95
2022-12-01T04:03:46.832Z,21.85
2022-12-01T04:05:23.837Z,22.13
2022-12-01T04:06:56.997Z,20.98
2022-12-01T04:08:30.789Z,22.02
2022-12-01T04:10:02.610Z,21.90
2022-12-01T04:11:52.891Z,22.17
2022-12-01T04:13:25.692Z,21.27
2022-12-01T04:14:57.928Z,21.90
2022-12-01T04:16:29.756Z,24.48
2022-12-01T04:18:01.557Z,23.30
2022-12-01T04:19:33.312Z,23.63
2022-12-01T04:21:05.193Z,24.20
2022-12-01T04:22:37.104Z,24.55
2022-12-01T04:24:09.072Z,23.17
2022-12-01T04:25:40.779Z,23.45
2022-12-01T04:27:12.936Z,23.52
2022-12-01T04:28:45.753Z,24.67
2022-12-01T04:30:17.606Z,25.20
2022-12-01T04:31:49.532Z,23.55
2022-12-01T04:33:21.901Z,24.67
2022-12-01T04:34:53.668Z,23.85
2022-12-01T04:36:26.343Z,24.02
2022-12-01T04:37:58.088Z,24.15
2022-12-01T04:39:29.869Z,24.02
2022-12-01T04:41:01.621Z,26.30
2022-12-01T04:42:33.391Z,23.73
2022-12-01T04:44:05.691Z,25.30
2022-12-01T04:45:38.348Z,24.73
2022-12-01T04:47:10.109Z,26.05
2022-12-01T04:48:41.959Z,25.00
2022-12-01T04:50:13.713Z,25.42
2022-12-01T04:51:45.468Z,23.38
2022-12-01T04:53:17.207Z,25.73
2022-12-01T04:54:48.976Z,26.48
2022-12-01T04:56:20.899Z,24.55
2022-12-01T04:57:52.644Z,26.13
2022-12-01T04:59:24.394Z,24.73
2022-12-01T05:01:02.217Z,23.90
2022-12-01T05:02:34.060Z,25.92
2022-12-01T05:04:06.500Z,26.83
2022-12-01T05:05:38.311Z,26.73
2022-12-01T05:07:10.413Z,27.88
2022-12-01T05:08:42.455Z,27.30
2022-12-01T05:10:14.487Z,27.02
2022-12-01T05:11:46.269Z,26.23
2022-12-01T05:13:18.008Z,25.92
2022-12-01T05:14:50.361Z,25.98
2022-12-01T05:16:31.997Z,29.27
2022-12-01T05:18:04.025Z,27.02
2022-12-01T05:19:54.306Z,27.55
2022-12-01T05:21:26.097Z,26.70
2022-12-01T05:23:05.247Z,26.65
2022-12-01T05:24:37.387Z,25.90
2022-12-01T05:26:09.609Z,26.48
2022-12-01T05:27:41.341Z,27.00
2022-12-01T05:29:13.853Z,26.10
2022-12-01T05:30:46.282Z,28.15
2022-12-01T05:32:18.029Z,25.98
2022-12-01T05:33:49.781Z,25.77
2022-12-01T05:35:21.553Z,27.60
2022-12-01T05:36:53.341Z,27.05
2022-12-01T05:38:25.147Z,26.58
2022-12-01T05:39:56.902Z,27.77
2022-12-01T05:41:28.683Z,27.73
2022-12-01T05:43:00.600Z,28.05
2022-12-01T05:44:32.365Z,28.17
2022-12-01T05:46:04.657Z,27.42
2022-12-01T05:47:36.604Z,25.27
2022-12-01T05:49:08.349Z,25.55
2022-12-01T05:50:40.266Z,26.67
2022-12-01T05:52:12.211Z,27.33
2022-12-01T05:53:44.720Z,29.73
2022-12-01T05:55:17.044Z,33.33
2022-12-01T05:56:48.771Z,30.98
2022-12-01T05:58:22.204Z,33.50
2022-12-01T05:59:54.017Z,29.42
2022-12-01T06:01:25.811Z,31.30
2022-12-01T06:02:57.556Z,27.70
2022-12-01T06:04:29.408Z,29.08
2022-12-01T06:06:01.379Z,28.55
2022-12-01T06:07:34.755Z,28.80
2022-12-01T06:09:06.534Z,27.48
2022-12-01T06:10:38.283Z,27.85
2022-12-01T06:12:09.992Z,31.83
2022-12-01T06:13:41.800Z,32.42
2022-12-01T06:15:14.186Z,29.40
2022-12-01T06:16:45.980Z,29.67
2022-12-01T06:18:17.740Z,30.33
2022-12-01T06:19:49.697Z,28.40
2022-12-01T06:21:21.605Z,30.40
2022-12-01T06:22:53.434Z,31.25
